Gardendale, Texas
Current Conditions -  °F | °C
As of 6:53 PM on Friday 24 Oct 2014 (Local Time) from KODO Reporting Station
Clear Clear  
Wind Chill: 80°   Ceiling: Unl
Heat Index: 80°   Visibility: 10mi
Dew Point: 45°   Wind: 7mph
Humidity: 29%   Direction: 300°WNW
Pressure: 30.13"   Gusts: NA
Location:  32.02°N, 102.36°W
Report Text: KODO 242353Z AUTO 30006KT 10SM CLR 27/07 A3013 RMK AO2 SLP165 T02670072 10300 20267 55001
Loading
Personal Weather Stations






























Interactive Weather Map
Tropical Storm Tracking
New forecast layout! Learn more

10-Day Weather Forecast

Advertisements
Track Severe Weather on mobile